Moreau, South Dakota
Current Conditions -  °F | °C
As of 3:55 AM on Monday 20 Oct 2014 (Local Time) from KPHP Reporting Station
Clear Clear  
Wind Chill: 34°   Ceiling: Unl
Heat Index: 34°   Visibility: 10mi
Dew Point: 31°   Wind: 3mph
Humidity: 89%   Direction: 280°W
Pressure: 30.07"   Gusts: NA
Location:  44.8511°N, 102.128°W
Report Text: KPHP 200955Z AUTO 28003KT 10SM CLR 01/M01 A3007 RMK AO2 SLP181 T00111006 $
Loading
Personal Weather Stations






























Interactive Weather Map
Tropical Storm Tracking
New forecast layout! Learn more

10-Day Weather Forecast

Advertisements
Track Severe Weather on mobile